sensor_id;sensor_type;location;lat;lon;timestamp;pressure;altitude;pressure_sealevel;temperature;humidity
33625;BME280;19962;47.820;1.930;2023-04-27T00:02:21;100541.19;;;14.49;70.03
33625;BME280;19962;47.820;1.930;2023-04-27T00:04:47;100543.25;;;14.59;69.89
33625;BME280;19962;47.820;1.930;2023-04-27T00:07:13;100538.44;;;14.71;69.24
33625;BME280;19962;47.820;1.930;2023-04-27T00:09:39;100532.97;;;14.76;69.11
33625;BME280;19962;47.820;1.930;2023-04-27T00:12:06;100529.00;;;14.67;68.98
33625;BME280;19962;47.820;1.930;2023-04-27T00:14:32;100537.47;;;14.60;69.46
33625;BME280;19962;47.820;1.930;2023-04-27T00:16:58;100532.44;;;14.57;69.54
33625;BME280;19962;47.820;1.930;2023-04-27T00:19:24;100526.03;;;14.52;69.77
33625;BME280;19962;47.820;1.930;2023-04-27T00:21:50;100534.69;;;14.39;70.04
33625;BME280;19962;47.820;1.930;2023-04-27T00:24:16;100530.13;;;14.28;70.67
33625;BME280;19962;47.820;1.930;2023-04-27T00:26:42;100533.88;;;14.38;70.33
33625;BME280;19962;47.820;1.930;2023-04-27T00:29:08;100513.50;;;14.44;69.66
33625;BME280;19962;47.820;1.930;2023-04-27T00:31:34;100510.50;;;14.46;69.81
33625;BME280;19962;47.820;1.930;2023-04-27T00:34:01;100513.69;;;14.38;69.62
33625;BME280;19962;47.820;1.930;2023-04-27T00:36:27;100507.19;;;14.27;70.19
33625;BME280;19962;47.820;1.930;2023-04-27T00:38:53;100504.72;;;14.26;70.28
33625;BME280;19962;47.820;1.930;2023-04-27T00:41:19;100521.09;;;14.16;70.40
33625;BME280;19962;47.820;1.930;2023-04-27T00:43:47;100513.44;;;14.01;71.17
33625;BME280;19962;47.820;1.930;2023-04-27T00:46:14;100525.38;;;14.07;70.82
33625;BME280;19962;47.820;1.930;2023-04-27T00:48:41;100520.44;;;14.09;70.69
33625;BME280;19962;47.820;1.930;2023-04-27T00:51:08;100523.69;;;14.22;70.32
33625;BME280;19962;47.820;1.930;2023-04-27T00:53:36;100519.09;;;14.28;69.67
33625;BME280;19962;47.820;1.930;2023-04-27T00:56:03;100510.50;;;14.24;69.92
33625;BME280;19962;47.820;1.930;2023-04-27T00:58:29;100510.75;;;14.23;69.92
33625;BME280;19962;47.820;1.930;2023-04-27T01:00:55;100510.22;;;14.09;70.08
33625;BME280;19962;47.820;1.930;2023-04-27T01:03:22;100514.69;;;14.10;70.26
33625;BME280;19962;47.820;1.930;2023-04-27T01:05:48;100519.28;;;14.05;70.54
33625;BME280;19962;47.820;1.930;2023-04-27T01:08:14;100514.50;;;14.00;70.45
33625;BME280;19962;47.820;1.930;2023-04-27T01:10:40;100516.44;;;14.00;70.30
33625;BME280;19962;47.820;1.930;2023-04-27T01:13:06;100520.88;;;14.01;70.29
33625;BME280;19962;47.820;1.930;2023-04-27T01:15:32;100523.22;;;14.09;70.03
33625;BME280;19962;47.820;1.930;2023-04-27T01:17:59;100521.25;;;14.09;70.03
33625;BME280;19962;47.820;1.930;2023-04-27T01:20:26;100525.81;;;13.99;70.30
33625;BME280;19962;47.820;1.930;2023-04-27T01:22:58;100528.59;;;13.99;70.12
33625;BME280;19962;47.820;1.930;2023-04-27T01:25:25;100524.13;;;13.98;70.08
33625;BME280;19962;47.820;1.930;2023-04-27T01:27:51;100523.63;;;14.01;70.27
33625;BME280;19962;47.820;1.930;2023-04-27T01:30:19;100522.47;;;13.97;69.97
33625;BME280;19962;47.820;1.930;2023-04-27T01:32:45;100527.00;;;13.70;70.78
33625;BME280;19962;47.820;1.930;2023-04-27T01:35:11;100523.81;;;13.78;70.74
33625;BME280;19962;47.820;1.930;2023-04-27T01:37:37;100512.19;;;13.76;70.63
33625;BME280;19962;47.820;1.930;2023-04-27T01:40:04;100517.47;;;13.61;71.28
33625;BME280;19962;47.820;1.930;2023-04-27T01:42:31;100512.72;;;13.73;70.84
33625;BME280;19962;47.820;1.930;2023-04-27T01:44:57;100511.97;;;13.61;71.16
33625;BME280;19962;47.820;1.930;2023-04-27T01:47:25;100519.06;;;13.57;71.20
33625;BME280;19962;47.820;1.930;2023-04-27T01:49:52;100520.16;;;13.39;71.77
33625;BME280;19962;47.820;1.930;2023-04-27T01:52:18;100514.66;;;13.39;71.85
33625;BME280;19962;47.820;1.930;2023-04-27T01:54:44;100511.97;;;13.44;71.46
33625;BME280;19962;47.820;1.930;2023-04-27T01:57:11;100496.09;;;13.35;72.18
33625;BME280;19962;47.820;1.930;2023-04-27T01:59:37;100505.13;;;13.47;71.73
33625;BME280;19962;47.820;1.930;2023-04-27T02:02:03;100500.09;;;13.44;71.50
33625;BME280;19962;47.820;1.930;2023-04-27T02:04:29;100500.41;;;13.31;71.78
33625;BME280;19962;47.820;1.930;2023-04-27T02:06:55;100493.56;;;13.33;72.04
33625;BME280;19962;47.820;1.930;2023-04-27T02:09:21;100494.59;;;13.27;72.49
33625;BME280;19962;47.820;1.930;2023-04-27T02:11:47;100500.56;;;13.24;72.28
33625;BME280;19962;47.820;1.930;2023-04-27T02:14:14;100503.91;;;13.10;72.67
33625;BME280;19962;47.820;1.930;2023-04-27T02:16:40;100498.19;;;13.28;72.76
33625;BME280;19962;47.820;1.930;2023-04-27T02:19:06;100500.41;;;13.31;71.90
33625;BME280;19962;47.820;1.930;2023-04-27T02:21:32;100499.31;;;13.32;72.03
33625;BME280;19962;47.820;1.930;2023-04-27T02:23:58;100496.41;;;13.22;72.11
33625;BME280;19962;47.820;1.930;2023-04-27T02:26:24;100496.94;;;13.19;72.43
33625;BME280;19962;47.820;1.930;2023-04-27T02:28:54;100503.41;;;13.29;72.25
33625;BME280;19962;47.820;1.930;2023-04-27T02:31:22;100491.91;;;13.32;71.85
33625;BME280;19962;47.820;1.930;2023-04-27T02:33:48;100493.50;;;13.28;72.11
33625;BME280;19962;47.820;1.930;2023-04-27T02:36:14;100490.56;;;13.18;72.30
33625;BME280;19962;47.820;1.930;2023-04-27T02:38:40;100498.50;;;13.15;72.38
33625;BME280;19962;47.820;1.930;2023-04-27T02:41:06;100493.00;;;13.31;72.04
33625;BME280;19962;47.820;1.930;2023-04-27T02:43:32;100489.00;;;13.39;71.54
33625;BME280;19962;47.820;1.930;2023-04-27T02:46:02;100478.53;;;13.41;71.50
33625;BME280;19962;47.820;1.930;2023-04-27T02:48:30;100475.13;;;13.34;71.51
33625;BME280;19962;47.820;1.930;2023-04-27T02:50:56;100476.63;;;13.25;71.61
33625;BME280;19962;47.820;1.930;2023-04-27T02:53:22;100482.28;;;13.02;72.05
33625;BME280;19962;47.820;1.930;2023-04-27T02:55:49;100478.56;;;12.96;72.38
33625;BME280;19962;47.820;1.930;2023-04-27T02:58:16;100482.94;;;12.81;73.05
33625;BME280;19962;47.820;1.930;2023-04-27T03:00:43;100488.44;;;12.81;73.13
33625;BME280;19962;47.820;1.930;2023-04-27T03:03:10;100482.28;;;12.62;73.63
33625;BME280;19962;47.820;1.930;2023-04-27T03:05:36;100497.84;;;12.68;73.54
33625;BME280;19962;47.820;1.930;2023-04-27T03:08:03;100498.75;;;12.74;73.37
33625;BME280;19962;47.820;1.930;2023-04-27T03:10:29;100503.59;;;12.67;73.19
33625;BME280;19962;47.820;1.930;2023-04-27T03:12:55;100501.56;;;12.62;73.59
33625;BME280;19962;47.820;1.930;2023-04-27T03:15:21;100501.50;;;12.74;73.38
33625;BME280;19962;47.820;1.930;2023-04-27T03:17:47;100504.50;;;12.84;73.04
33625;BME280;19962;47.820;1.930;2023-04-27T03:20:14;100503.88;;;12.82;72.48
33625;BME280;19962;47.820;1.930;2023-04-27T03:22:40;100506.34;;;12.67;73.01
33625;BME280;19962;47.820;1.930;2023-04-27T03:25:06;100505.06;;;12.58;73.47
33625;BME280;19962;47.820;1.930;2023-04-27T03:27:32;100510.28;;;12.71;73.52
33625;BME280;19962;47.820;1.930;2023-04-27T03:29:58;100512.31;;;12.92;72.78
33625;BME280;19962;47.820;1.930;2023-04-27T03:32:24;100502.38;;;13.02;72.30
33625;BME280;19962;47.820;1.930;2023-04-27T03:34:50;100504.88;;;13.04;71.99
33625;BME280;19962;47.820;1.930;2023-04-27T03:37:17;100507.88;;;13.02;71.78
33625;BME280;19962;47.820;1.930;2023-04-27T03:39:43;100504.75;;;13.10;71.94
33625;BME280;19962;47.820;1.930;2023-04-27T03:42:09;100512.75;;;13.12;71.55
33625;BME280;19962;47.820;1.930;2023-04-27T03:44:36;100513.31;;;12.86;71.91
33625;BME280;19962;47.820;1.930;2023-04-27T03:47:02;100511.84;;;12.67;72.64
33625;BME280;19962;47.820;1.930;2023-04-27T03:49:28;100518.22;;;12.56;73.29
33625;BME280;19962;47.820;1.930;2023-04-27T03:51:54;100520.03;;;12.50;73.58
33625;BME280;19962;47.820;1.930;2023-04-27T03:54:21;100520.66;;;12.41;73.68
33625;BME280;19962;47.820;1.930;2023-04-27T03:56:47;100512.72;;;12.56;73.84
33625;BME280;19962;47.820;1.930;2023-04-27T03:59:13;100515.19;;;12.69;73.23
33625;BME280;19962;47.820;1.930;2023-04-27T04:01:39;100512.44;;;12.69;72.96
33625;BME280;19962;47.820;1.930;2023-04-27T04:04:06;100513.56;;;12.56;73.01
33625;BME280;19962;47.820;1.930;2023-04-27T04:06:32;100511.44;;;12.35;74.08
33625;BME280;19962;47.820;1.930;2023-04-27T04:08:58;100506.91;;;12.41;74.10
33625;BME280;19962;47.820;1.930;2023-04-27T04:11:24;100510.56;;;12.58;73.51
33625;BME280;19962;47.820;1.930;2023-04-27T04:13:51;100503.78;;;12.49;73.96
33625;BME280;19962;47.820;1.930;2023-04-27T04:16:17;100500.03;;;12.55;73.71
33625;BME280;19962;47.820;1.930;2023-04-27T04:18:43;100502.97;;;12.65;73.15
33625;BME280;19962;47.820;1.930;2023-04-27T04:21:09;100495.44;;;12.32;74.01
33625;BME280;19962;47.820;1.930;2023-04-27T04:23:38;100496.78;;;12.18;74.65
33625;BME280;19962;47.820;1.930;2023-04-27T04:26:06;100503.00;;;12.14;74.74
33625;BME280;19962;47.820;1.930;2023-04-27T04:28:32;100503.09;;;12.30;74.72
33625;BME280;19962;47.820;1.930;2023-04-27T04:31:00;100510.78;;;12.28;74.50
33625;BME280;19962;47.820;1.930;2023-04-27T04:33:26;100521.28;;;12.20;74.98
33625;BME280;19962;47.820;1.930;2023-04-27T04:35:52;100520.19;;;12.44;74.50
33625;BME280;19962;47.820;1.930;2023-04-27T04:38:19;100519.63;;;12.58;73.41
33625;BME280;19962;47.820;1.930;2023-04-27T04:40:46;100518.72;;;12.53;73.59
33625;BME280;19962;47.820;1.930;2023-04-27T04:43:12;100517.84;;;12.64;73.10
33625;BME280;19962;47.820;1.930;2023-04-27T04:45:38;100514.88;;;12.54;73.22
33625;BME280;19962;47.820;1.930;2023-04-27T04:48:05;100521.13;;;12.38;73.64
33625;BME280;19962;47.820;1.930;2023-04-27T04:50:31;100522.31;;;12.42;74.13
33625;BME280;19962;47.820;1.930;2023-04-27T04:52:58;100520.88;;;12.51;73.57
33625;BME280;19962;47.820;1.930;2023-04-27T04:55:25;100513.41;;;12.63;73.55
33625;BME280;19962;47.820;1.930;2023-04-27T04:57:53;100509.63;;;12.80;72.58
33625;BME280;19962;47.820;1.930;2023-04-27T05:00:19;100524.16;;;12.76;72.23
33625;BME280;19962;47.820;1.930;2023-04-27T05:02:45;100522.06;;;12.55;72.82
33625;BME280;19962;47.820;1.930;2023-04-27T05:05:11;100527.59;;;12.43;73.35
33625;BME280;19962;47.820;1.930;2023-04-27T05:07:37;100533.91;;;12.55;73.52
33625;BME280;19962;47.820;1.930;2023-04-27T05:10:03;100522.34;;;12.81;72.60
33625;BME280;19962;47.820;1.930;2023-04-27T05:12:30;100526.25;;;12.97;71.82
33625;BME280;19962;47.820;1.930;2023-04-27T05:14:56;100530.88;;;12.96;71.30
33625;BME280;19962;47.820;1.930;2023-04-27T05:17:22;100530.22;;;12.78;72.02
33625;BME280;19962;47.820;1.930;2023-04-27T05:19:48;100532.34;;;12.87;71.81
33625;BME280;19962;47.820;1.930;2023-04-27T05:22:14;100526.72;;;12.94;71.53
33625;BME280;19962;47.820;1.930;2023-04-27T05:24:40;100520.75;;;12.97;71.44
33625;BME280;19962;47.820;1.930;2023-04-27T05:27:06;100527.72;;;12.76;72.03
33625;BME280;19962;47.820;1.930;2023-04-27T05:29:32;100532.16;;;12.77;72.19
33625;BME280;19962;47.820;1.930;2023-04-27T05:31:59;100531.78;;;12.85;72.05
33625;BME280;19962;47.820;1.930;2023-04-27T05:34:25;100530.94;;;12.85;71.96
33625;BME280;19962;47.820;1.930;2023-04-27T05:36:51;100521.59;;;12.86;71.98
33625;BME280;19962;47.820;1.930;2023-04-27T05:39:17;100518.50;;;12.82;72.35
33625;BME280;19962;47.820;1.930;2023-04-27T05:41:43;100523.75;;;12.84;72.13
33625;BME280;19962;47.820;1.930;2023-04-27T05:44:09;100528.38;;;12.95;71.92
33625;BME280;19962;47.820;1.930;2023-04-27T05:46:36;100532.44;;;13.04;71.74
33625;BME280;19962;47.820;1.930;2023-04-27T05:49:02;100522.19;;;13.16;71.28
33625;BME280;19962;47.820;1.930;2023-04-27T05:51:28;100530.38;;;13.11;71.18
33625;BME280;19962;47.820;1.930;2023-04-27T05:53:54;100525.00;;;13.04;71.86
33625;BME280;19962;47.820;1.930;2023-04-27T05:56:20;100521.97;;;13.17;71.50
33625;BME280;19962;47.820;1.930;2023-04-27T05:58:47;100519.69;;;13.14;71.80
33625;BME280;19962;47.820;1.930;2023-04-27T06:01:13;100528.28;;;13.18;71.66
33625;BME280;19962;47.820;1.930;2023-04-27T06:03:39;100524.47;;;13.19;71.68
33625;BME280;19962;47.820;1.930;2023-04-27T06:06:05;100517.25;;;13.18;71.63
33625;BME280;19962;47.820;1.930;2023-04-27T06:08:31;100520.88;;;13.18;71.79
33625;BME280;19962;47.820;1.930;2023-04-27T06:10:57;100516.78;;;13.21;71.75
33625;BME280;19962;47.820;1.930;2023-04-27T06:13:23;100512.88;;;13.33;71.37
33625;BME280;19962;47.820;1.930;2023-04-27T06:15:49;100522.31;;;13.37;71.57
33625;BME280;19962;47.820;1.930;2023-04-27T06:18:16;100511.19;;;13.32;71.85
33625;BME280;19962;47.820;1.930;2023-04-27T06:20:42;100508.19;;;13.34;72.19
33625;BME280;19962;47.820;1.930;2023-04-27T06:23:08;100502.78;;;13.39;72.48
33625;BME280;19962;47.820;1.930;2023-04-27T06:25:34;100508.69;;;13.47;72.27
33625;BME280;19962;47.820;1.930;2023-04-27T06:28:02;100500.69;;;13.46;72.15
33625;BME280;19962;47.820;1.930;2023-04-27T06:30:28;100507.63;;;13.48;72.59
33625;BME280;19962;47.820;1.930;2023-04-27T06:32:54;100514.66;;;13.56;72.15
33625;BME280;19962;47.820;1.930;2023-04-27T06:35:21;100511.03;;;13.55;72.20
33625;BME280;19962;47.820;1.930;2023-04-27T06:37:47;100510.63;;;13.63;72.07
33625;BME280;19962;47.820;1.930;2023-04-27T06:40:13;100500.09;;;13.60;72.26
33625;BME280;19962;47.820;1.930;2023-04-27T06:42:39;100495.84;;;13.53;72.09
33625;BME280;19962;47.820;1.930;2023-04-27T06:45:06;100494.25;;;13.57;72.51
33625;BME280;19962;47.820;1.930;2023-04-27T06:47:32;100496.44;;;13.55;72.79
33625;BME280;19962;47.820;1.930;2023-04-27T06:49:58;100511.63;;;13.74;72.36
33625;BME280;19962;47.820;1.930;2023-04-27T06:52:25;100503.69;;;13.77;72.46
33625;BME280;19962;47.820;1.930;2023-04-27T06:54:51;100510.75;;;13.90;72.43
33625;BME280;19962;47.820;1.930;2023-04-27T06:57:17;100509.75;;;13.96;71.90
33625;BME280;19962;47.820;1.930;2023-04-27T06:59:43;100511.38;;;14.13;71.08
33625;BME280;19962;47.820;1.930;2023-04-27T07:02:10;100514.34;;;14.23;70.69
33625;BME280;19962;47.820;1.930;2023-04-27T07:04:36;100514.34;;;14.23;70.84
33625;BME280;19962;47.820;1.930;2023-04-27T07:07:03;100524.28;;;14.24;71.26
33625;BME280;19962;47.820;1.930;2023-04-27T07:09:29;100520.94;;;14.22;71.43
33625;BME280;19962;47.820;1.930;2023-04-27T07:11:55;100523.78;;;14.11;72.28
33625;BME280;19962;47.820;1.930;2023-04-27T07:14:23;100525.97;;;14.09;72.99
33625;BME280;19962;47.820;1.930;2023-04-27T07:16:49;100523.94;;;14.21;72.62
33625;BME280;19962;47.820;1.930;2023-04-27T07:19:16;100525.78;;;14.32;71.98
33625;BME280;19962;47.820;1.930;2023-04-27T07:21:42;100523.56;;;14.34;72.49
33625;BME280;19962;47.820;1.930;2023-04-27T07:24:08;100513.25;;;14.46;72.55
33625;BME280;19962;47.820;1.930;2023-04-27T07:26:34;100517.31;;;14.60;72.23
33625;BME280;19962;47.820;1.930;2023-04-27T07:29:01;100510.78;;;14.66;72.50
33625;BME280;19962;47.820;1.930;2023-04-27T07:31:27;100514.59;;;14.65;72.24
33625;BME280;19962;47.820;1.930;2023-04-27T07:33:53;100516.59;;;14.69;72.44
33625;BME280;19962;47.820;1.930;2023-04-27T07:36:20;100507.59;;;14.79;72.47
33625;BME280;19962;47.820;1.930;2023-04-27T07:38:46;100506.03;;;14.88;72.48
33625;BME280;19962;47.820;1.930;2023-04-27T07:41:12;100512.44;;;14.93;72.65
33625;BME280;19962;47.820;1.930;2023-04-27T07:43:39;100509.44;;;14.95;72.36
33625;BME280;19962;47.820;1.930;2023-04-27T07:46:05;100511.44;;;14.99;72.67
33625;BME280;19962;47.820;1.930;2023-04-27T07:48:31;100512.25;;;15.00;72.76
33625;BME280;19962;47.820;1.930;2023-04-27T07:50:57;100507.38;;;15.07;73.22
33625;BME280;19962;47.820;1.930;2023-04-27T07:53:23;100504.84;;;15.05;73.90
33625;BME280;19962;47.820;1.930;2023-04-27T07:55:50;100506.22;;;15.03;74.12
33625;BME280;19962;47.820;1.930;2023-04-27T07:58:16;100504.56;;;15.02;74.50
33625;BME280;19962;47.820;1.930;2023-04-27T08:00:42;100505.78;;;15.16;74.68
33625;BME280;19962;47.820;1.930;2023-04-27T08:03:08;100502.03;;;15.27;74.63
33625;BME280;19962;47.820;1.930;2023-04-27T08:05:34;100508.81;;;15.41;74.19
33625;BME280;19962;47.820;1.930;2023-04-27T08:08:00;100502.84;;;15.54;74.12
33625;BME280;19962;47.820;1.930;2023-04-27T08:10:26;100493.59;;;15.70;74.31
33625;BME280;19962;47.820;1.930;2023-04-27T08:12:52;100491.41;;;15.77;74.20
33625;BME280;19962;47.820;1.930;2023-04-27T08:15:19;100485.97;;;15.87;74.52
33625;BME280;19962;47.820;1.930;2023-04-27T08:17:46;100491.56;;;15.97;74.43
33625;BME280;19962;47.820;1.930;2023-04-27T08:20:13;100492.47;;;16.07;73.83
33625;BME280;19962;47.820;1.930;2023-04-27T08:22:40;100495.56;;;16.16;73.85
33625;BME280;19962;47.820;1.930;2023-04-27T08:25:07;100480.09;;;16.25;73.71
33625;BME280;19962;47.820;1.930;2023-04-27T08:27:37;100483.75;;;16.35;73.68
33625;BME280;19962;47.820;1.930;2023-04-27T08:30:03;100487.94;;;16.38;74.33
33625;BME280;19962;47.820;1.930;2023-04-27T08:32:29;100492.44;;;16.44;74.08
33625;BME280;19962;47.820;1.930;2023-04-27T08:34:56;100490.22;;;16.46;74.32
33625;BME280;19962;47.820;1.930;2023-04-27T08:37:22;100489.97;;;16.52;74.15
33625;BME280;19962;47.820;1.930;2023-04-27T08:39:48;100489.47;;;16.60;74.43
33625;BME280;19962;47.820;1.930;2023-04-27T08:42:14;100488.38;;;16.71;74.64
33625;BME280;19962;47.820;1.930;2023-04-27T08:44:42;100490.91;;;16.78;74.37
33625;BME280;19962;47.820;1.930;2023-04-27T08:47:08;100471.78;;;16.81;74.19
33625;BME280;19962;47.820;1.930;2023-04-27T08:49:36;100475.69;;;16.90;74.69
33625;BME280;19962;47.820;1.930;2023-04-27T08:52:15;100466.28;;;17.01;74.88
33625;BME280;19962;47.820;1.930;2023-04-27T08:54:42;100463.81;;;17.10;74.36
33625;BME280;19962;47.820;1.930;2023-04-27T08:57:12;100472.69;;;17.22;74.77
33625;BME280;19962;47.820;1.930;2023-04-27T08:59:39;100474.41;;;17.33;74.57
33625;BME280;19962;47.820;1.930;2023-04-27T09:02:05;100478.31;;;17.42;74.13
33625;BME280;19962;47.820;1.930;2023-04-27T09:04:39;100474.16;;;17.50;74.17
33625;BME280;19962;47.820;1.930;2023-04-27T09:07:16;100478.56;;;17.56;73.75
33625;BME280;19962;47.820;1.930;2023-04-27T09:09:43;100466.66;;;17.60;73.63
33625;BME280;19962;47.820;1.930;2023-04-27T09:12:16;100469.13;;;17.62;73.73
33625;BME280;19962;47.820;1.930;2023-04-27T09:14:43;100470.53;;;17.64;74.02
33625;BME280;19962;47.820;1.930;2023-04-27T09:17:27;100463.31;;;17.58;73.28
33625;BME280;19962;47.820;1.930;2023-04-27T09:20:06;100468.34;;;17.56;72.83
33625;BME280;19962;47.820;1.930;2023-04-27T09:22:44;100460.53;;;17.58;73.32
33625;BME280;19962;47.820;1.930;2023-04-27T09:25:28;100463.31;;;17.53;73.03
33625;BME280;19962;47.820;1.930;2023-04-27T09:27:55;100459.72;;;17.58;73.19
33625;BME280;19962;47.820;1.930;2023-04-27T09:30:21;100453.59;;;17.61;73.41
33625;BME280;19962;47.820;1.930;2023-04-27T09:32:54;100456.09;;;17.62;73.58
33625;BME280;19962;47.820;1.930;2023-04-27T09:35:23;100452.50;;;17.67;73.98
33625;BME280;19962;47.820;1.930;2023-04-27T09:37:51;100445.25;;;17.71;73.84
33625;BME280;19962;47.820;1.930;2023-04-27T09:40:22;100450.28;;;17.74;74.40
33625;BME280;19962;47.820;1.930;2023-04-27T09:42:54;100452.22;;;17.83;74.67
33625;BME280;19962;47.820;1.930;2023-04-27T09:45:25;100453.81;;;17.99;74.62
33625;BME280;19962;47.820;1.930;2023-04-27T09:47:52;100453.25;;;18.07;74.24
33625;BME280;19962;47.820;1.930;2023-04-27T09:50:18;100448.28;;;18.09;73.59
33625;BME280;19962;47.820;1.930;2023-04-27T09:52:48;100455.75;;;18.09;73.22
33625;BME280;19962;47.820;1.930;2023-04-27T09:55:36;100457.13;;;18.16;73.21
33625;BME280;19962;47.820;1.930;2023-04-27T09:59:04;100454.31;;;18.36;72.83
33625;BME280;19962;47.820;1.930;2023-04-27T10:01:31;100450.88;;;18.59;72.25
33625;BME280;19962;47.820;1.930;2023-04-27T10:04:04;100440.84;;;18.68;72.22
33625;BME280;19962;47.820;1.930;2023-04-27T10:09:25;100437.44;;;18.81;71.01
33625;BME280;19962;47.820;1.930;2023-04-27T10:11:53;100434.06;;;18.84;70.41
33625;BME280;19962;47.820;1.930;2023-04-27T10:14:21;100431.53;;;18.93;70.06
33625;BME280;19962;47.820;1.930;2023-04-27T10:16:54;100434.22;;;19.03;70.58
33625;BME280;19962;47.820;1.930;2023-04-27T10:19:21;100437.78;;;19.13;69.46
33625;BME280;19962;47.820;1.930;2023-04-27T10:21:59;100436.59;;;19.19;67.65
33625;BME280;19962;47.820;1.930;2023-04-27T10:24:41;100428.25;;;19.19;66.65
33625;BME280;19962;47.820;1.930;2023-04-27T10:27:14;100421.59;;;19.25;67.30
33625;BME280;19962;47.820;1.930;2023-04-27T10:29:44;100427.41;;;19.29;67.28
33625;BME280;19962;47.820;1.930;2023-04-27T10:32:22;100420.94;;;19.33;65.96
33625;BME280;19962;47.820;1.930;2023-04-27T10:34:50;100424.25;;;19.40;65.70
33625;BME280;19962;47.820;1.930;2023-04-27T10:37:18;100414.09;;;19.54;65.79
33625;BME280;19962;47.820;1.930;2023-04-27T10:39:50;100421.03;;;19.57;64.88
33625;BME280;19962;47.820;1.930;2023-04-27T10:42:26;100413.63;;;19.47;64.82
33625;BME280;19962;47.820;1.930;2023-04-27T10:44:58;100409.19;;;19.41;64.68
33625;BME280;19962;47.820;1.930;2023-04-27T10:47:34;100410.31;;;19.40;64.99
33625;BME280;19962;47.820;1.930;2023-04-27T10:50:03;100403.41;;;19.38;64.54
33625;BME280;19962;47.820;1.930;2023-04-27T10:52:29;100404.56;;;19.32;64.89
33625;BME280;19962;47.820;1.930;2023-04-27T10:54:55;100408.22;;;19.27;65.11
33625;BME280;19962;47.820;1.930;2023-04-27T10:57:22;100408.22;;;19.27;64.67
33625;BME280;19962;47.820;1.930;2023-04-27T10:59:52;100393.19;;;19.28;65.07
33625;BME280;19962;47.820;1.930;2023-04-27T11:02:27;100399.59;;;19.29;64.80
33625;BME280;19962;47.820;1.930;2023-04-27T11:04:54;100386.47;;;19.34;64.69
33625;BME280;19962;47.820;1.930;2023-04-27T11:07:27;100387.22;;;19.40;64.35
33625;BME280;19962;47.820;1.930;2023-04-27T11:09:54;100387.34;;;19.58;63.77
33625;BME280;19962;47.820;1.930;2023-04-27T11:12:21;100384.56;;;19.58;62.88
33625;BME280;19962;47.820;1.930;2023-04-27T11:14:47;100389.09;;;19.49;63.25
33625;BME280;19962;47.820;1.930;2023-04-27T11:17:13;100378.34;;;19.38;63.96
33625;BME280;19962;47.820;1.930;2023-04-27T11:19:46;100375.88;;;19.36;63.75
33625;BME280;19962;47.820;1.930;2023-04-27T11:22:14;100366.72;;;19.59;63.43
33625;BME280;19962;47.820;1.930;2023-04-27T11:24:50;100364.88;;;19.78;62.02
33625;BME280;19962;47.820;1.930;2023-04-27T11:27:17;100356.34;;;19.93;61.11
33625;BME280;19962;47.820;1.930;2023-04-27T11:29:44;100355.44;;;19.98;61.67
33625;BME280;19962;47.820;1.930;2023-04-27T11:32:21;100358.47;;;20.01;60.48
33625;BME280;19962;47.820;1.930;2023-04-27T11:34:49;100353.72;;;20.02;60.52
33625;BME280;19962;47.820;1.930;2023-04-27T11:37:22;100350.56;;;19.90;59.71
33625;BME280;19962;47.820;1.930;2023-04-27T11:39:49;100361.56;;;19.76;59.94
33625;BME280;19962;47.820;1.930;2023-04-27T11:42:25;100359.66;;;19.72;60.18
33625;BME280;19962;47.820;1.930;2023-04-27T11:47:25;100359.66;;;19.72;60.32
33625;BME280;19962;47.820;1.930;2023-04-27T11:49:58;100359.31;;;19.78;59.87
33625;BME280;19962;47.820;1.930;2023-04-27T11:52:32;100355.06;;;19.86;59.75
33625;BME280;19962;47.820;1.930;2023-04-27T11:54:59;100359.28;;;20.02;58.85
33625;BME280;19962;47.820;1.930;2023-04-27T11:57:26;100356.09;;;20.18;59.36
33625;BME280;19962;47.820;1.930;2023-04-27T11:59:56;100356.16;;;20.32;58.94
33625;BME280;19962;47.820;1.930;2023-04-27T12:02:25;100349.34;;;20.43;57.77
33625;BME280;19962;47.820;1.930;2023-04-27T12:04:52;100347.53;;;20.52;57.20
33625;BME280;19962;47.820;1.930;2023-04-27T12:07:19;100345.06;;;20.50;57.09
33625;BME280;19962;47.820;1.930;2023-04-27T12:09:45;100344.81;;;20.47;56.61
33625;BME280;19962;47.820;1.930;2023-04-27T12:12:12;100332.09;;;20.41;56.82
33625;BME280;19962;47.820;1.930;2023-04-27T12:14:39;100333.00;;;20.36;57.67
33625;BME280;19962;47.820;1.930;2023-04-27T12:17:05;100330.50;;;20.35;56.53
33625;BME280;19962;47.820;1.930;2023-04-27T12:19:32;100328.34;;;20.50;55.90
33625;BME280;19962;47.820;1.930;2023-04-27T12:21:58;100326.06;;;20.71;55.07
33625;BME280;19962;47.820;1.930;2023-04-27T12:24:24;100323.41;;;20.79;54.57
33625;BME280;19962;47.820;1.930;2023-04-27T12:26:51;100330.97;;;20.79;54.34
33625;BME280;19962;47.820;1.930;2023-04-27T12:29:17;100321.94;;;20.68;53.43
33625;BME280;19962;47.820;1.930;2023-04-27T12:31:43;100315.97;;;20.56;54.03
33625;BME280;19962;47.820;1.930;2023-04-27T12:34:09;100317.88;;;20.61;54.44
33625;BME280;19962;47.820;1.930;2023-04-27T12:36:36;100318.00;;;20.69;54.01
33625;BME280;19962;47.820;1.930;2023-04-27T12:39:14;100318.97;;;20.78;53.98
33625;BME280;19962;47.820;1.930;2023-04-27T12:41:43;100309.38;;;20.84;53.76
33625;BME280;19962;47.820;1.930;2023-04-27T12:44:10;100309.09;;;20.86;53.91
33625;BME280;19962;47.820;1.930;2023-04-27T12:46:38;100297.59;;;20.92;53.72
33625;BME280;19962;47.820;1.930;2023-04-27T12:49:04;100296.91;;;21.00;53.92
33625;BME280;19962;47.820;1.930;2023-04-27T12:51:31;100298.03;;;20.99;53.78
33625;BME280;19962;47.820;1.930;2023-04-27T12:54:03;100297.78;;;20.96;53.20
33625;BME280;19962;47.820;1.930;2023-04-27T12:56:30;100304.22;;;20.96;53.80
33625;BME280;19962;47.820;1.930;2023-04-27T12:58:57;100297.50;;;20.97;54.27